sensor_id;sensor_type;location;lat;lon;timestamp;temperature;humidity
13892;DHT22;7016;48.172;8.058;2023-07-20T00:01:24;21.50;97.30
13892;DHT22;7016;48.172;8.058;2023-07-20T00:03:50;21.50;97.50
13892;DHT22;7016;48.172;8.058;2023-07-20T00:06:20;21.40;97.90
13892;DHT22;7016;48.172;8.058;2023-07-20T00:08:46;21.50;97.50
13892;DHT22;7016;48.172;8.058;2023-07-20T00:11:12;21.40;97.70
13892;DHT22;7016;48.172;8.058;2023-07-20T00:16:05;21.50;97.30
13892;DHT22;7016;48.172;8.058;2023-07-20T00:18:30;21.40;98.20
13892;DHT22;7016;48.172;8.058;2023-07-20T00:20:56;21.40;98.00
13892;DHT22;7016;48.172;8.058;2023-07-20T00:23:22;21.40;98.30
13892;DHT22;7016;48.172;8.058;2023-07-20T00:25:48;21.30;98.40
13892;DHT22;7016;48.172;8.058;2023-07-20T00:28:14;21.30;98.30
13892;DHT22;7016;48.172;8.058;2023-07-20T00:30:40;21.30;97.80
13892;DHT22;7016;48.172;8.058;2023-07-20T00:33:10;21.30;98.00
13892;DHT22;7016;48.172;8.058;2023-07-20T00:35:37;21.20;97.50
13892;DHT22;7016;48.172;8.058;2023-07-20T00:38:03;21.20;98.50
13892;DHT22;7016;48.172;8.058;2023-07-20T00:40:35;21.20;98.80
13892;DHT22;7016;48.172;8.058;2023-07-20T00:43:01;21.20;99.00
13892;DHT22;7016;48.172;8.058;2023-07-20T00:45:27;21.20;99.10
13892;DHT22;7016;48.172;8.058;2023-07-20T00:47:53;21.20;99.40
13892;DHT22;7016;48.172;8.058;2023-07-20T00:50:19;21.10;98.90
13892;DHT22;7016;48.172;8.058;2023-07-20T00:52:45;21.00;99.30
13892;DHT22;7016;48.172;8.058;2023-07-20T00:55:11;21.00;98.90
13892;DHT22;7016;48.172;8.058;2023-07-20T00:57:36;21.00;98.50
13892;DHT22;7016;48.172;8.058;2023-07-20T01:00:02;20.90;99.10
13892;DHT22;7016;48.172;8.058;2023-07-20T01:02:28;20.60;98.60
13892;DHT22;7016;48.172;8.058;2023-07-20T01:04:54;20.80;97.40
13892;DHT22;7016;48.172;8.058;2023-07-20T01:07:34;20.80;97.50
13892;DHT22;7016;48.172;8.058;2023-07-20T01:12:41;21.00;99.50
13892;DHT22;7016;48.172;8.058;2023-07-20T01:15:08;20.80;98.60
13892;DHT22;7016;48.172;8.058;2023-07-20T01:17:34;20.80;98.90
13892;DHT22;7016;48.172;8.058;2023-07-20T01:20:00;20.80;99.60
13892;DHT22;7016;48.172;8.058;2023-07-20T01:31:24;20.60;98.80
13892;DHT22;7016;48.172;8.058;2023-07-20T01:33:54;20.60;99.60
13892;DHT22;7016;48.172;8.058;2023-07-20T01:36:19;20.60;99.90
13892;DHT22;7016;48.172;8.058;2023-07-20T01:38:47;20.60;99.90
13892;DHT22;7016;48.172;8.058;2023-07-20T01:41:14;20.60;99.90
13892;DHT22;7016;48.172;8.058;2023-07-20T01:43:40;20.60;99.90
13892;DHT22;7016;48.172;8.058;2023-07-20T01:46:06;20.50;99.90
13892;DHT22;7016;48.172;8.058;2023-07-20T01:48:32;20.50;99.90
13892;DHT22;7016;48.172;8.058;2023-07-20T01:50:57;20.50;99.90
13892;DHT22;7016;48.172;8.058;2023-07-20T01:53:24;20.50;99.90
13892;DHT22;7016;48.172;8.058;2023-07-20T01:55:49;20.50;99.90
13892;DHT22;7016;48.172;8.058;2023-07-20T01:58:17;20.50;99.90
13892;DHT22;7016;48.172;8.058;2023-07-20T02:00:43;20.50;99.90
13892;DHT22;7016;48.172;8.058;2023-07-20T02:03:09;20.40;99.90
13892;DHT22;7016;48.172;8.058;2023-07-20T02:05:34;20.30;99.90
13892;DHT22;7016;48.172;8.058;2023-07-20T02:08:00;20.30;99.90
13892;DHT22;7016;48.172;8.058;2023-07-20T02:10:26;20.30;99.90
13892;DHT22;7016;48.172;8.058;2023-07-20T02:12:51;20.40;99.90
13892;DHT22;7016;48.172;8.058;2023-07-20T02:15:17;20.20;99.90
13892;DHT22;7016;48.172;8.058;2023-07-20T02:17:44;20.10;99.90
13892;DHT22;7016;48.172;8.058;2023-07-20T02:20:10;20.00;99.90
13892;DHT22;7016;48.172;8.058;2023-07-20T02:22:39;20.10;99.90
13892;DHT22;7016;48.172;8.058;2023-07-20T02:25:06;20.00;99.90
13892;DHT22;7016;48.172;8.058;2023-07-20T02:27:33;20.00;99.90
13892;DHT22;7016;48.172;8.058;2023-07-20T02:29:59;19.90;99.90
13892;DHT22;7016;48.172;8.058;2023-07-20T02:32:24;19.90;99.90
13892;DHT22;7016;48.172;8.058;2023-07-20T02:34:50;20.00;99.90
13892;DHT22;7016;48.172;8.058;2023-07-20T02:37:17;19.90;99.90
13892;DHT22;7016;48.172;8.058;2023-07-20T02:39:42;19.90;99.90
13892;DHT22;7016;48.172;8.058;2023-07-20T02:42:08;19.90;99.90
13892;DHT22;7016;48.172;8.058;2023-07-20T02:44:34;19.70;99.90
13892;DHT22;7016;48.172;8.058;2023-07-20T02:47:00;19.70;99.90
13892;DHT22;7016;48.172;8.058;2023-07-20T02:49:26;19.60;99.90
13892;DHT22;7016;48.172;8.058;2023-07-20T02:51:52;19.50;99.90
13892;DHT22;7016;48.172;8.058;2023-07-20T02:54:17;19.40;99.90
13892;DHT22;7016;48.172;8.058;2023-07-20T02:56:43;19.40;99.90
13892;DHT22;7016;48.172;8.058;2023-07-20T02:59:09;19.40;99.90
13892;DHT22;7016;48.172;8.058;2023-07-20T03:01:35;19.40;99.90
13892;DHT22;7016;48.172;8.058;2023-07-20T03:04:00;19.30;99.90
13892;DHT22;7016;48.172;8.058;2023-07-20T03:06:26;19.30;99.90
13892;DHT22;7016;48.172;8.058;2023-07-20T03:08:51;19.30;99.90
13892;DHT22;7016;48.172;8.058;2023-07-20T03:11:19;19.30;99.90
13892;DHT22;7016;48.172;8.058;2023-07-20T03:13:45;19.30;99.90
13892;DHT22;7016;48.172;8.058;2023-07-20T03:16:12;19.20;99.90
13892;DHT22;7016;48.172;8.058;2023-07-20T03:18:41;19.30;99.90
13892;DHT22;7016;48.172;8.058;2023-07-20T03:21:07;19.20;99.90
13892;DHT22;7016;48.172;8.058;2023-07-20T03:23:33;19.30;99.90
13892;DHT22;7016;48.172;8.058;2023-07-20T03:26:00;19.20;99.90
13892;DHT22;7016;48.172;8.058;2023-07-20T03:28:26;19.10;99.90
13892;DHT22;7016;48.172;8.058;2023-07-20T03:30:56;19.10;99.90
13892;DHT22;7016;48.172;8.058;2023-07-20T03:33:27;19.20;99.90
13892;DHT22;7016;48.172;8.058;2023-07-20T03:35:54;19.30;99.90
13892;DHT22;7016;48.172;8.058;2023-07-20T03:38:20;19.20;99.90
13892;DHT22;7016;48.172;8.058;2023-07-20T03:40:57;19.20;99.90
13892;DHT22;7016;48.172;8.058;2023-07-20T03:43:24;19.20;99.90
13892;DHT22;7016;48.172;8.058;2023-07-20T03:45:51;19.20;99.90
13892;DHT22;7016;48.172;8.058;2023-07-20T03:48:21;19.10;99.90
13892;DHT22;7016;48.172;8.058;2023-07-20T03:50:48;19.10;99.90
13892;DHT22;7016;48.172;8.058;2023-07-20T03:53:15;19.10;99.90
13892;DHT22;7016;48.172;8.058;2023-07-20T03:55:48;19.10;99.90
13892;DHT22;7016;48.172;8.058;2023-07-20T03:58:15;19.20;99.90
13892;DHT22;7016;48.172;8.058;2023-07-20T04:00:47;19.10;99.90
13892;DHT22;7016;48.172;8.058;2023-07-20T04:03:13;19.10;99.90
13892;DHT22;7016;48.172;8.058;2023-07-20T04:05:39;18.90;99.90
13892;DHT22;7016;48.172;8.058;2023-07-20T04:08:05;18.80;99.90
13892;DHT22;7016;48.172;8.058;2023-07-20T04:10:31;18.80;99.90
13892;DHT22;7016;48.172;8.058;2023-07-20T04:12:56;18.90;99.90
13892;DHT22;7016;48.172;8.058;2023-07-20T04:15:22;18.90;99.90
13892;DHT22;7016;48.172;8.058;2023-07-20T04:17:47;19.00;99.90
13892;DHT22;7016;48.172;8.058;2023-07-20T04:20:13;19.10;99.90
13892;DHT22;7016;48.172;8.058;2023-07-20T04:22:39;19.10;99.90
13892;DHT22;7016;48.172;8.058;2023-07-20T04:25:05;19.00;99.90
13892;DHT22;7016;48.172;8.058;2023-07-20T04:27:31;18.90;99.90
13892;DHT22;7016;48.172;8.058;2023-07-20T04:29:58;18.90;99.90
13892;DHT22;7016;48.172;8.058;2023-07-20T04:32:25;19.00;99.90
13892;DHT22;7016;48.172;8.058;2023-07-20T04:34:51;18.90;99.90
13892;DHT22;7016;48.172;8.058;2023-07-20T04:37:16;18.90;99.90
13892;DHT22;7016;48.172;8.058;2023-07-20T04:39:42;18.90;99.90
13892;DHT22;7016;48.172;8.058;2023-07-20T04:42:08;18.90;99.90
13892;DHT22;7016;48.172;8.058;2023-07-20T04:44:33;19.00;99.90
13892;DHT22;7016;48.172;8.058;2023-07-20T04:46:59;18.90;99.90
13892;DHT22;7016;48.172;8.058;2023-07-20T04:49:25;18.90;99.90
13892;DHT22;7016;48.172;8.058;2023-07-20T04:51:51;18.90;99.90
13892;DHT22;7016;48.172;8.058;2023-07-20T04:54:17;18.90;99.90
13892;DHT22;7016;48.172;8.058;2023-07-20T04:56:44;18.90;99.90
13892;DHT22;7016;48.172;8.058;2023-07-20T04:59:09;18.90;99.90
13892;DHT22;7016;48.172;8.058;2023-07-20T05:01:35;18.90;99.90
13892;DHT22;7016;48.172;8.058;2023-07-20T05:04:01;19.00;99.90
13892;DHT22;7016;48.172;8.058;2023-07-20T05:06:26;19.00;99.90
13892;DHT22;7016;48.172;8.058;2023-07-20T05:08:52;19.00;99.90
13892;DHT22;7016;48.172;8.058;2023-07-20T05:11:18;19.00;99.90
13892;DHT22;7016;48.172;8.058;2023-07-20T05:13:43;18.90;99.90
13892;DHT22;7016;48.172;8.058;2023-07-20T05:16:09;18.90;99.90
13892;DHT22;7016;48.172;8.058;2023-07-20T05:18:35;19.00;99.90
13892;DHT22;7016;48.172;8.058;2023-07-20T05:21:00;18.90;99.90
13892;DHT22;7016;48.172;8.058;2023-07-20T05:23:26;18.90;99.90
13892;DHT22;7016;48.172;8.058;2023-07-20T05:25:58;18.90;99.90
13892;DHT22;7016;48.172;8.058;2023-07-20T05:28:25;19.00;99.90
13892;DHT22;7016;48.172;8.058;2023-07-20T05:30:54;19.10;99.90
13892;DHT22;7016;48.172;8.058;2023-07-20T05:33:20;19.10;99.90
13892;DHT22;7016;48.172;8.058;2023-07-20T05:35:47;19.10;99.90
13892;DHT22;7016;48.172;8.058;2023-07-20T05:38:13;19.20;99.90
13892;DHT22;7016;48.172;8.058;2023-07-20T05:40:43;19.10;99.90
13892;DHT22;7016;48.172;8.058;2023-07-20T05:43:10;19.10;99.90
13892;DHT22;7016;48.172;8.058;2023-07-20T05:45:36;19.00;99.90
13892;DHT22;7016;48.172;8.058;2023-07-20T05:48:02;19.10;99.90
13892;DHT22;7016;48.172;8.058;2023-07-20T05:50:28;19.20;99.90
13892;DHT22;7016;48.172;8.058;2023-07-20T05:52:54;19.20;99.90
13892;DHT22;7016;48.172;8.058;2023-07-20T05:55:20;19.20;99.90
13892;DHT22;7016;48.172;8.058;2023-07-20T05:57:46;19.20;99.90
13892;DHT22;7016;48.172;8.058;2023-07-20T06:00:14;19.30;99.90
13892;DHT22;7016;48.172;8.058;2023-07-20T06:02:39;19.30;99.90
13892;DHT22;7016;48.172;8.058;2023-07-20T06:05:06;19.40;99.90
13892;DHT22;7016;48.172;8.058;2023-07-20T06:07:38;19.40;99.90
13892;DHT22;7016;48.172;8.058;2023-07-20T06:10:06;19.40;99.90
13892;DHT22;7016;48.172;8.058;2023-07-20T06:12:32;19.50;99.90
13892;DHT22;7016;48.172;8.058;2023-07-20T06:15:02;19.50;99.90
13892;DHT22;7016;48.172;8.058;2023-07-20T06:17:29;19.50;99.90
13892;DHT22;7016;48.172;8.058;2023-07-20T06:19:54;19.50;99.90
13892;DHT22;7016;48.172;8.058;2023-07-20T06:22:20;19.60;99.90
13892;DHT22;7016;48.172;8.058;2023-07-20T06:24:45;19.70;99.90
13892;DHT22;7016;48.172;8.058;2023-07-20T06:27:11;19.70;99.90
13892;DHT22;7016;48.172;8.058;2023-07-20T06:29:37;19.70;99.90
13892;DHT22;7016;48.172;8.058;2023-07-20T06:32:04;19.70;99.90
13892;DHT22;7016;48.172;8.058;2023-07-20T06:34:30;19.80;99.90
13892;DHT22;7016;48.172;8.058;2023-07-20T06:36:56;19.80;99.90
13892;DHT22;7016;48.172;8.058;2023-07-20T06:39:22;21.20;99.90
13892;DHT22;7016;48.172;8.058;2023-07-20T06:41:48;19.90;99.90
13892;DHT22;7016;48.172;8.058;2023-07-20T06:44:13;19.90;99.90
13892;DHT22;7016;48.172;8.058;2023-07-20T06:46:39;19.90;99.90
13892;DHT22;7016;48.172;8.058;2023-07-20T06:49:06;20.00;99.90
13892;DHT22;7016;48.172;8.058;2023-07-20T06:51:33;19.90;99.90
13892;DHT22;7016;48.172;8.058;2023-07-20T06:53:59;20.00;99.90
13892;DHT22;7016;48.172;8.058;2023-07-20T06:56:24;19.90;99.90
13892;DHT22;7016;48.172;8.058;2023-07-20T06:58:50;20.00;99.90
13892;DHT22;7016;48.172;8.058;2023-07-20T07:01:15;20.10;99.90
13892;DHT22;7016;48.172;8.058;2023-07-20T07:03:42;20.10;99.90
13892;DHT22;7016;48.172;8.058;2023-07-20T07:06:09;20.10;99.90
13892;DHT22;7016;48.172;8.058;2023-07-20T07:08:35;20.10;99.90
13892;DHT22;7016;48.172;8.058;2023-07-20T07:11:01;20.10;99.90
13892;DHT22;7016;48.172;8.058;2023-07-20T07:13:27;20.20;99.90
13892;DHT22;7016;48.172;8.058;2023-07-20T07:15:53;20.20;99.90
13892;DHT22;7016;48.172;8.058;2023-07-20T07:18:18;20.20;99.90
13892;DHT22;7016;48.172;8.058;2023-07-20T07:20:51;20.30;99.90
13892;DHT22;7016;48.172;8.058;2023-07-20T07:23:17;20.30;99.90
13892;DHT22;7016;48.172;8.058;2023-07-20T07:25:42;20.30;99.90
13892;DHT22;7016;48.172;8.058;2023-07-20T07:28:08;20.30;99.90
13892;DHT22;7016;48.172;8.058;2023-07-20T07:30:33;20.40;99.90
13892;DHT22;7016;48.172;8.058;2023-07-20T07:32:59;20.40;99.90
13892;DHT22;7016;48.172;8.058;2023-07-20T07:35:25;20.50;99.90
13892;DHT22;7016;48.172;8.058;2023-07-20T07:37:51;20.50;99.90
13892;DHT22;7016;48.172;8.058;2023-07-20T07:40:16;20.40;99.90
13892;DHT22;7016;48.172;8.058;2023-07-20T07:42:42;20.40;99.90
13892;DHT22;7016;48.172;8.058;2023-07-20T07:45:08;20.40;98.90
13892;DHT22;7016;48.172;8.058;2023-07-20T07:47:34;20.40;98.50
13892;DHT22;7016;48.172;8.058;2023-07-20T07:49:59;20.50;99.20
13892;DHT22;7016;48.172;8.058;2023-07-20T07:52:25;20.50;98.50
13892;DHT22;7016;48.172;8.058;2023-07-20T07:54:50;20.60;98.60
13892;DHT22;7016;48.172;8.058;2023-07-20T07:57:16;20.60;98.60
13892;DHT22;7016;48.172;8.058;2023-07-20T07:59:42;20.60;98.80
13892;DHT22;7016;48.172;8.058;2023-07-20T08:02:07;20.70;98.40
13892;DHT22;7016;48.172;8.058;2023-07-20T08:04:33;20.80;98.40
13892;DHT22;7016;48.172;8.058;2023-07-20T08:06:59;20.80;98.30
13892;DHT22;7016;48.172;8.058;2023-07-20T08:09:25;20.90;99.30
13892;DHT22;7016;48.172;8.058;2023-07-20T08:11:51;21.10;99.90
13892;DHT22;7016;48.172;8.058;2023-07-20T08:14:16;21.30;98.10
13892;DHT22;7016;48.172;8.058;2023-07-20T08:16:42;21.30;98.60
13892;DHT22;7016;48.172;8.058;2023-07-20T08:19:08;21.30;98.60
13892;DHT22;7016;48.172;8.058;2023-07-20T08:21:34;21.30;97.70
13892;DHT22;7016;48.172;8.058;2023-07-20T08:24:00;21.30;98.60
13892;DHT22;7016;48.172;8.058;2023-07-20T08:26:25;21.30;98.80
13892;DHT22;7016;48.172;8.058;2023-07-20T08:28:51;21.20;97.70
13892;DHT22;7016;48.172;8.058;2023-07-20T08:31:17;21.30;99.10
13892;DHT22;7016;48.172;8.058;2023-07-20T08:33:43;21.30;97.80
13892;DHT22;7016;48.172;8.058;2023-07-20T08:36:10;21.40;98.20
13892;DHT22;7016;48.172;8.058;2023-07-20T08:38:36;21.50;97.70
13892;DHT22;7016;48.172;8.058;2023-07-20T08:41:01;21.40;97.00
13892;DHT22;7016;48.172;8.058;2023-07-20T08:43:27;21.60;98.90
13892;DHT22;7016;48.172;8.058;2023-07-20T08:45:56;21.50;96.10
13892;DHT22;7016;48.172;8.058;2023-07-20T08:48:22;21.60;97.10
13892;DHT22;7016;48.172;8.058;2023-07-20T08:50:52;21.70;97.70
13892;DHT22;7016;48.172;8.058;2023-07-20T08:53:20;21.80;97.30
13892;DHT22;7016;48.172;8.058;2023-07-20T08:55:49;21.80;95.80
13892;DHT22;7016;48.172;8.058;2023-07-20T08:58:15;21.80;96.40
13892;DHT22;7016;48.172;8.058;2023-07-20T09:00:42;21.80;94.90
13892;DHT22;7016;48.172;8.058;2023-07-20T09:03:08;22.00;96.00
13892;DHT22;7016;48.172;8.058;2023-07-20T09:05:35;22.30;95.00
13892;DHT22;7016;48.172;8.058;2023-07-20T09:08:01;22.20;94.60
13892;DHT22;7016;48.172;8.058;2023-07-20T09:10:29;22.10;94.50
13892;DHT22;7016;48.172;8.058;2023-07-20T09:12:54;22.00;94.50
13892;DHT22;7016;48.172;8.058;2023-07-20T09:15:21;22.00;94.50
13892;DHT22;7016;48.172;8.058;2023-07-20T09:17:48;21.90;94.50
13892;DHT22;7016;48.172;8.058;2023-07-20T09:20:15;22.00;95.00
13892;DHT22;7016;48.172;8.058;2023-07-20T09:22:42;22.10;95.40
13892;DHT22;7016;48.172;8.058;2023-07-20T09:25:18;22.10;93.70
13892;DHT22;7016;48.172;8.058;2023-07-20T09:27:49;22.30;94.30
13892;DHT22;7016;48.172;8.058;2023-07-20T09:30:16;22.50;94.20
13892;DHT22;7016;48.172;8.058;2023-07-20T09:32:47;22.60;94.20
13892;DHT22;7016;48.172;8.058;2023-07-20T09:37:46;22.70;94.40
13892;DHT22;7016;48.172;8.058;2023-07-20T09:40:15;22.90;93.80
13892;DHT22;7016;48.172;8.058;2023-07-20T09:42:41;22.80;93.30
13892;DHT22;7016;48.172;8.058;2023-07-20T09:45:08;22.80;93.40
13892;DHT22;7016;48.172;8.058;2023-07-20T09:47:36;22.80;93.60
13892;DHT22;7016;48.172;8.058;2023-07-20T09:50:03;22.80;93.60
13892;DHT22;7016;48.172;8.058;2023-07-20T09:52:29;23.00;93.40
13892;DHT22;7016;48.172;8.058;2023-07-20T09:54:55;22.90;92.90
13892;DHT22;7016;48.172;8.058;2023-07-20T09:57:21;22.80;93.50
13892;DHT22;7016;48.172;8.058;2023-07-20T09:59:47;22.90;94.60
13892;DHT22;7016;48.172;8.058;2023-07-20T10:02:21;23.00;94.10
13892;DHT22;7016;48.172;8.058;2023-07-20T10:04:54;23.00;92.70
13892;DHT22;7016;48.172;8.058;2023-07-20T10:07:22;23.00;93.60
13892;DHT22;7016;48.172;8.058;2023-07-20T10:09:51;23.10;93.50
13892;DHT22;7016;48.172;8.058;2023-07-20T10:12:20;23.20;93.50
13892;DHT22;7016;48.172;8.058;2023-07-20T10:17:37;23.10;93.90
13892;DHT22;7016;48.172;8.058;2023-07-20T10:20:05;23.00;93.80
13892;DHT22;7016;48.172;8.058;2023-07-20T10:22:35;22.90;93.50
13892;DHT22;7016;48.172;8.058;2023-07-20T10:25:01;23.00;93.50
13892;DHT22;7016;48.172;8.058;2023-07-20T10:27:28;23.00;93.10
13892;DHT22;7016;48.172;8.058;2023-07-20T10:29:54;23.00;93.70
13892;DHT22;7016;48.172;8.058;2023-07-20T10:32:20;23.00;93.20
13892;DHT22;7016;48.172;8.058;2023-07-20T10:34:55;22.90;92.20
13892;DHT22;7016;48.172;8.058;2023-07-20T10:40:38;23.20;92.70
13892;DHT22;7016;48.172;8.058;2023-07-20T10:43:08;23.50;93.00
13892;DHT22;7016;48.172;8.058;2023-07-20T10:45:52;23.60;92.40
13892;DHT22;7016;48.172;8.058;2023-07-20T10:48:22;23.60;91.60
13892;DHT22;7016;48.172;8.058;2023-07-20T10:53:36;23.40;92.00
13892;DHT22;7016;48.172;8.058;2023-07-20T10:56:15;23.60;91.90
13892;DHT22;7016;48.172;8.058;2023-07-20T10:58:44;23.50;91.20
13892;DHT22;7016;48.172;8.058;2023-07-20T11:01:14;23.40;91.60
13892;DHT22;7016;48.172;8.058;2023-07-20T11:03:40;23.40;92.10
13892;DHT22;7016;48.172;8.058;2023-07-20T11:09:09;23.30;92.80
13892;DHT22;7016;48.172;8.058;2023-07-20T11:11:38;23.40;92.10
13892;DHT22;7016;48.172;8.058;2023-07-20T11:14:20;23.30;91.20
13892;DHT22;7016;48.172;8.058;2023-07-20T11:16:47;23.30;91.50
13892;DHT22;7016;48.172;8.058;2023-07-20T11:21:44;23.30;91.10
13892;DHT22;7016;48.172;8.058;2023-07-20T11:24:10;23.60;91.60
13892;DHT22;7016;48.172;8.058;2023-07-20T11:26:54;23.60;92.20
13892;DHT22;7016;48.172;8.058;2023-07-20T11:29:21;23.80;92.50
13892;DHT22;7016;48.172;8.058;2023-07-20T11:31:48;24.10;90.70
13892;DHT22;7016;48.172;8.058;2023-07-20T11:34:19;24.40;91.40
13892;DHT22;7016;48.172;8.058;2023-07-20T11:36:47;24.40;91.40
13892;DHT22;7016;48.172;8.058;2023-07-20T11:39:14;24.10;90.20
13892;DHT22;7016;48.172;8.058;2023-07-20T11:44:13;24.00;91.30
13892;DHT22;7016;48.172;8.058;2023-07-20T11:46:41;24.00;90.90
13892;DHT22;7016;48.172;8.058;2023-07-20T11:49:08;24.10;91.20
13892;DHT22;7016;48.172;8.058;2023-07-20T11:51:34;24.10;91.10
13892;DHT22;7016;48.172;8.058;2023-07-20T11:54:01;24.10;90.80
13892;DHT22;7016;48.172;8.058;2023-07-20T11:56:28;24.10;91.00
13892;DHT22;7016;48.172;8.058;2023-07-20T11:59:01;24.20;91.10
13892;DHT22;7016;48.172;8.058;2023-07-20T12:01:29;24.30;92.00
13892;DHT22;7016;48.172;8.058;2023-07-20T12:03:59;24.30;90.30
13892;DHT22;7016;48.172;8.058;2023-07-20T12:06:27;24.30;90.40
13892;DHT22;7016;48.172;8.058;2023-07-20T12:08:57;24.40;90.00
13892;DHT22;7016;48.172;8.058;2023-07-20T12:11:37;24.50;90.00
13892;DHT22;7016;48.172;8.058;2023-07-20T12:14:07;24.50;88.30
13892;DHT22;7016;48.172;8.058;2023-07-20T12:16:34;24.50;88.10
13892;DHT22;7016;48.172;8.058;2023-07-20T12:19:04;24.30;89.50
13892;DHT22;7016;48.172;8.058;2023-07-20T12:21:31;24.30;90.40
13892;DHT22;7016;48.172;8.058;2023-07-20T12:23:58;24.50;91.30
13892;DHT22;7016;48.172;8.058;2023-07-20T12:26:24;24.50;91.70
13892;DHT22;7016;48.172;8.058;2023-07-20T12:28:51;24.30;90.20
13892;DHT22;7016;48.172;8.058;2023-07-20T12:31:16;24.40;90.30
13892;DHT22;7016;48.172;8.058;2023-07-20T12:33:43;24.60;88.10
13892;DHT22;7016;48.172;8.058;2023-07-20T12:36:09;24.60;88.80
13892;DHT22;7016;48.172;8.058;2023-07-20T12:38:35;24.60;86.50
13892;DHT22;7016;48.172;8.058;2023-07-20T12:41:02;24.70;85.00
13892;DHT22;7016;48.172;8.058;2023-07-20T12:43:28;24.70;85.90
13892;DHT22;7016;48.172;8.058;2023-07-20T12:45:55;24.70;85.60
13892;DHT22;7016;48.172;8.058;2023-07-20T12:48:21;24.90;86.20
13892;DHT22;7016;48.172;8.058;2023-07-20T12:50:47;25.00;88.30
13892;DHT22;7016;48.172;8.058;2023-07-20T12:53:13;25.00;86.00
13892;DHT22;7016;48.172;8.058;2023-07-20T12:55:39;24.90;85.00
13892;DHT22;7016;48.172;8.058;2023-07-20T12:58:05;25.10;85.30
13892;DHT22;7016;48.172;8.058;2023-07-20T13:00:31;25.00;84.80
13892;DHT22;7016;48.172;8.058;2023-07-20T13:02:57;25.10;86.30
13892;DHT22;7016;48.172;8.058;2023-07-20T13:05:23;25.30;85.10
13892;DHT22;7016;48.172;8.058;2023-07-20T13:07:49;25.20;84.00
13892;DHT22;7016;48.172;8.058;2023-07-20T13:10:15;25.20;85.90
13892;DHT22;7016;48.172;8.058;2023-07-20T13:12:41;25.10;82.40
13892;DHT22;7016;48.172;8.058;2023-07-20T13:15:08;25.00;84.30
13892;DHT22;7016;48.172;8.058;2023-07-20T13:17:39;25.00;84.20
13892;DHT22;7016;48.172;8.058;2023-07-20T13:20:06;24.90;83.60
13892;DHT22;7016;48.172;8.058;2023-07-20T13:22:34;24.90;84.10
13892;DHT22;7016;48.172;8.058;2023-07-20T13:25:00;24.90;83.70
13892;DHT22;7016;48.172;8.058;2023-07-20T13:27:27;24.90;84.80
13892;DHT22;7016;48.172;8.058;2023-07-20T13:29:52;24.90;85.50
13892;DHT22;7016;48.172;8.058;2023-07-20T13:32:19;24.80;86.00
13892;DHT22;7016;48.172;8.058;2023-07-20T13:34:45;24.70;84.90
13892;DHT22;7016;48.172;8.058;2023-07-20T13:37:11;24.70;85.20
13892;DHT22;7016;48.172;8.058;2023-07-20T13:39:37;24.70;85.70
13892;DHT22;7016;48.172;8.058;2023-07-20T13:42:04;24.80;87.60
13892;DHT22;7016;48.172;8.058;2023-07-20T13:44:34;24.90;87.30
13892;DHT22;7016;48.172;8.058;2023-07-20T13:47:02;25.00;87.70
13892;DHT22;7016;48.172;8.058;2023-07-20T13:49:28;25.10;84.30
13892;DHT22;7016;48.172;8.058;2023-07-20T13:51:54;24.90;83.80
13892;DHT22;7016;48.172;8.058;2023-07-20T13:54:20;25.10;86.90
13892;DHT22;7016;48.172;8.058;2023-07-20T13:56:46;25.10;87.20
13892;DHT22;7016;48.172;8.058;2023-07-20T13:59:11;25.00;84.10
13892;DHT22;7016;48.172;8.058;2023-07-20T14:01:37;25.10;85.50
13892;DHT22;7016;48.172;8.058;2023-07-20T14:04:03;25.30;84.90
13892;DHT22;7016;48.172;8.058;2023-07-20T14:06:33;25.40;86.30
13892;DHT22;7016;48.172;8.058;2023-07-20T14:08:59;25.30;85.10
13892;DHT22;7016;48.172;8.058;2023-07-20T14:11:25;25.20;86.10
13892;DHT22;7016;48.172;8.058;2023-07-20T14:13:52;25.30;84.30
13892;DHT22;7016;48.172;8.058;2023-07-20T14:16:21;25.20;84.70
13892;DHT22;7016;48.172;8.058;2023-07-20T14:18:47;25.10;83.70
13892;DHT22;7016;48.172;8.058;2023-07-20T14:21:18;25.00;85.90
13892;DHT22;7016;48.172;8.058;2023-07-20T14:23:49;25.10;88.20
13892;DHT22;7016;48.172;8.058;2023-07-20T14:26:16;25.10;88.70
13892;DHT22;7016;48.172;8.058;2023-07-20T14:28:42;25.20;87.20
13892;DHT22;7016;48.172;8.058;2023-07-20T14:31:08;25.10;82.90
13892;DHT22;7016;48.172;8.058;2023-07-20T14:33:33;25.00;83.10
13892;DHT22;7016;48.172;8.058;2023-07-20T14:35:59;25.10;83.10
13892;DHT22;7016;48.172;8.058;2023-07-20T14:38:27;25.10;85.20
13892;DHT22;7016;48.172;8.058;2023-07-20T14:40:53;25.30;86.50
13892;DHT22;7016;48.172;8.058;2023-07-20T14:43:19;25.30;84.20
13892;DHT22;7016;48.172;8.058;2023-07-20T14:45:45;25.20;83.60
13892;DHT22;7016;48.172;8.058;2023-07-20T14:48:11;25.30;85.50
13892;DHT22;7016;48.172;8.058;2023-07-20T14:50:36;25.30;85.50
13892;DHT22;7016;48.172;8.058;2023-07-20T14:53:02;25.30;87.10
13892;DHT22;7016;48.172;8.058;2023-07-20T14:55:28;25.20;85.80
13892;DHT22;7016;48.172;8.058;2023-07-20T14:57:54;25.30;85.20
13892;DHT22;7016;48.172;8.058;2023-07-20T15:00:20;25.20;82.60
13892;DHT22;7016;48.172;8.058;2023-07-20T15:02:45;25.20;83.10
13892;DHT22;7016;48.172;8.058;2023-07-20T15:05:11;25.30;84.40
13892;DHT22;7016;48.172;8.058;2023-07-20T15:07:37;25.40;85.50
13892;DHT22;7016;48.172;8.058;2023-07-20T15:10:04;25.50;85.60
13892;DHT22;7016;48.172;8.058;2023-07-20T15:12:33;25.50;85.30
13892;DHT22;7016;48.172;8.058;2023-07-20T15:17:31;25.50;82.40
13892;DHT22;7016;48.172;8.058;2023-07-20T15:19:57;25.40;85.10
13892;DHT22;7016;48.172;8.058;2023-07-20T15:22:23;25.30;84.10
13892;DHT22;7016;48.172;8.058;2023-07-20T15:24:49;25.40;82.80
13892;DHT22;7016;48.172;8.058;2023-07-20T15:27:15;25.40;82.50
13892;DHT22;7016;48.172;8.058;2023-07-20T15:29:40;25.30;83.30
13892;DHT22;7016;48.172;8.058;2023-07-20T15:32:07;25.30;81.20
13892;DHT22;7016;48.172;8.058;2023-07-20T15:34:34;25.20;83.80
13892;DHT22;7016;48.172;8.058;2023-07-20T15:36:59;25.20;82.40
13892;DHT22;7016;48.172;8.058;2023-07-20T15:39:25;25.20;80.90
13892;DHT22;7016;48.172;8.058;2023-07-20T15:41:52;25.20;82.10
13892;DHT22;7016;48.172;8.058;2023-07-20T15:44:19;25.20;82.20
13892;DHT22;7016;48.172;8.058;2023-07-20T15:46:48;25.20;83.50
13892;DHT22;7016;48.172;8.058;2023-07-20T15:49:15;25.30;82.10
13892;DHT22;7016;48.172;8.058;2023-07-20T15:51:40;25.20;81.70
13892;DHT22;7016;48.172;8.058;2023-07-20T15:54:10;25.30;84.20
13892;DHT22;7016;48.172;8.058;2023-07-20T15:56:37;25.30;85.10
13892;DHT22;7016;48.172;8.058;2023-07-20T15:59:04;25.20;83.90
13892;DHT22;7016;48.172;8.058;2023-07-20T16:01:30;25.20;83.30
13892;DHT22;7016;48.172;8.058;2023-07-20T16:03:59;25.40;85.60
13892;DHT22;7016;48.172;8.058;2023-07-20T16:06:25;25.40;85.60
13892;DHT22;7016;48.172;8.058;2023-07-20T16:08:51;25.40;84.20
13892;DHT22;7016;48.172;8.058;2023-07-20T16:11:18;25.30;83.10
13892;DHT22;7016;48.172;8.058;2023-07-20T16:13:44;25.40;82.30
13892;DHT22;7016;48.172;8.058;2023-07-20T16:16:12;25.30;82.90
13892;DHT22;7016;48.172;8.058;2023-07-20T16:18:38;25.30;85.40